CheckWX is a tool to help pilots better visualize weather data.  It is not intended as a substitute for an official pre-flight weather briefing.

17:02:07 UTC

EEPU METAR
Pärnu Airport
Pärnu, Estonia
Current

4 hours ago

EEPU 261250Z 33010KT 280V020 CAVOK 20/06 Q1030
Observed
May-26 @ 12:50 UTC
Wind
  • 330° at 10 KTS
Visibility
10,000+ meters
Flight Rules
VFR
Cloud Levels
  • Clear skies
Temperature
20°C / 68°F
Dewpoint
C / 43°F
Humidity
40%
Altimeter
30.41" Hg
Pressure
1029.92 hPa
Previous

5 hours ago

EEPU 261150Z 31008KT 280V360 CAVOK 20/06 Q1030
Observed
May-26 @ 11:50 UTC
Wind
  • 310° at 8 KTS
Visibility
10,000+ meters
Flight Rules
VFR
Cloud Levels
  • Clear skies
Temperature
20°C / 68°F
Dewpoint
C / 43°F
Humidity
40%
Altimeter
30.41" Hg
Pressure
1029.92 hPa
Previous

6 hours ago

EEPU 261050Z 31005KT 250V020 CAVOK 21/05 Q1030
Observed
May-26 @ 10:50 UTC
Wind
  • 310° at 5 KTS
Visibility
10,000+ meters
Flight Rules
VFR
Cloud Levels
  • Clear skies
Temperature
21°C / 70°F
Dewpoint
C / 41°F
Humidity
35%
Altimeter
30.41" Hg
Pressure
1029.92 hPa